createdAt,value
2023-04-27T00:00:11.894Z,7.90
2023-04-27T00:02:40.521Z,7.90
2023-04-27T00:05:11.105Z,7.80
2023-04-27T00:07:39.708Z,7.80
2023-04-27T00:10:10.078Z,7.80
2023-04-27T00:12:41.937Z,7.70
2023-04-27T00:15:12.143Z,7.70
2023-04-27T00:17:41.066Z,7.70
2023-04-27T00:20:12.382Z,7.60
2023-04-27T00:22:41.259Z,7.60
2023-04-27T00:25:10.726Z,7.50
2023-04-27T00:27:40.789Z,7.40
2023-04-27T00:30:11.053Z,7.40
2023-04-27T00:32:39.580Z,7.40
2023-04-27T00:35:09.447Z,7.40
2023-04-27T00:37:38.245Z,7.30
2023-04-27T00:40:08.249Z,7.30
2023-04-27T00:42:37.396Z,7.30
2023-04-27T00:45:09.044Z,7.20
2023-04-27T00:47:40.268Z,7.20
2023-04-27T00:50:10.667Z,7.10
2023-04-27T00:52:40.152Z,7.10
2023-04-27T00:55:10.789Z,7.00
2023-04-27T00:57:39.953Z,7.00
2023-04-27T01:00:11.802Z,7.00
2023-04-27T01:02:41.688Z,7.00
2023-04-27T01:05:10.807Z,7.00
2023-04-27T01:07:39.993Z,6.90
2023-04-27T01:10:10.391Z,6.90
2023-04-27T01:12:38.902Z,6.90
2023-04-27T01:15:11.551Z,6.80
2023-04-27T01:17:40.177Z,6.80
2023-04-27T01:20:10.830Z,6.80
2023-04-27T01:22:39.844Z,6.80
2023-04-27T01:25:10.836Z,6.90
2023-04-27T01:27:39.310Z,6.80
2023-04-27T01:30:58.227Z,6.80
2023-04-27T01:33:26.709Z,6.90
2023-04-27T01:35:55.149Z,6.90
2023-04-27T01:38:24.203Z,6.90
2023-04-27T01:40:55.266Z,6.80
2023-04-27T01:43:23.850Z,6.80
2023-04-27T01:45:52.301Z,6.80
2023-04-27T01:48:21.038Z,6.80
2023-04-27T01:50:49.677Z,6.70
2023-04-27T01:53:18.189Z,6.70
2023-04-27T01:55:46.698Z,6.70
2023-04-27T01:58:16.494Z,6.70
2023-04-27T02:00:44.994Z,6.70
2023-04-27T02:03:13.732Z,6.60
2023-04-27T02:05:42.448Z,6.60
2023-04-27T02:08:11.079Z,6.60
2023-04-27T02:10:39.622Z,6.60
2023-04-27T02:13:08.265Z,6.60
2023-04-27T02:15:38.203Z,6.50
2023-04-27T02:18:07.414Z,6.50
2023-04-27T02:20:35.939Z,6.50
2023-04-27T02:23:04.465Z,6.60
2023-04-27T02:25:32.823Z,6.60
2023-04-27T02:28:01.382Z,6.50
2023-04-27T02:30:30.591Z,6.50
2023-04-27T02:33:01.289Z,6.50
2023-04-27T02:35:29.899Z,6.50
2023-04-27T02:37:58.350Z,6.50
2023-04-27T02:40:27.078Z,6.60
2023-04-27T02:42:55.559Z,6.50
2023-04-27T02:45:24.065Z,6.50
2023-04-27T02:47:52.478Z,6.40
2023-04-27T02:50:22.395Z,6.40
2023-04-27T02:52:50.847Z,6.40
2023-04-27T02:55:21.474Z,6.40
2023-04-27T02:57:49.982Z,6.40
2023-04-27T03:00:18.958Z,6.30
2023-04-27T03:02:47.510Z,6.30
2023-04-27T03:05:16.112Z,6.30
2023-04-27T03:07:46.146Z,6.30
2023-04-27T03:10:14.699Z,6.30
2023-04-27T03:12:43.163Z,6.20
2023-04-27T03:15:12.469Z,6.20
2023-04-27T03:17:40.995Z,6.20
2023-04-27T03:20:11.139Z,6.10
2023-04-27T03:22:39.742Z,6.10
2023-04-27T03:25:10.568Z,6.10
2023-04-27T03:27:39.102Z,6.10
2023-04-27T03:30:09.615Z,6.10
2023-04-27T03:32:38.145Z,6.00
2023-04-27T03:35:08.179Z,6.00
2023-04-27T03:37:36.631Z,6.00
2023-04-27T03:40:07.406Z,6.00
2023-04-27T03:42:37.345Z,5.90
2023-04-27T03:45:07.170Z,5.80
2023-04-27T03:47:35.664Z,5.70
2023-04-27T03:50:54.163Z,5.60
2023-04-27T03:53:22.793Z,5.60
2023-04-27T03:55:51.563Z,5.50
2023-04-27T03:58:21.458Z,5.60
2023-04-27T04:00:49.910Z,5.60
2023-04-27T04:03:18.485Z,5.60
2023-04-27T04:05:47.759Z,5.60
2023-04-27T04:08:16.302Z,5.60
2023-04-27T04:10:44.773Z,5.60
2023-04-27T04:13:13.208Z,5.70
2023-04-27T04:15:43.052Z,5.80
2023-04-27T04:18:11.574Z,5.90
2023-04-27T04:20:40.057Z,6.00
2023-04-27T04:23:08.531Z,6.00
2023-04-27T04:25:37.321Z,6.10
2023-04-27T04:28:06.247Z,6.20
2023-04-27T04:30:34.682Z,6.20
2023-04-27T04:33:04.752Z,6.30
2023-04-27T04:35:34.044Z,6.40
2023-04-27T04:38:02.543Z,6.40
2023-04-27T04:40:31.274Z,6.40
2023-04-27T04:42:59.750Z,6.60
2023-04-27T04:45:28.879Z,6.50
2023-04-27T04:47:57.713Z,6.60
2023-04-27T04:50:28.056Z,6.70
2023-04-27T04:52:56.585Z,6.80
2023-04-27T04:55:27.495Z,6.90
2023-04-27T04:57:56.239Z,7.00
2023-04-27T05:00:24.730Z,7.00
2023-04-27T05:02:53.533Z,7.00
2023-04-27T05:05:22.457Z,6.90
2023-04-27T05:07:52.364Z,6.90
2023-04-27T05:10:20.957Z,7.00
2023-04-27T05:12:49.417Z,7.10
2023-04-27T05:15:18.080Z,7.20
2023-04-27T05:17:46.524Z,7.30
2023-04-27T05:20:16.019Z,7.40
2023-04-27T05:22:44.634Z,7.40
2023-04-27T05:25:14.732Z,7.30
2023-04-27T05:27:43.211Z,7.30
2023-04-27T05:30:13.251Z,7.20
2023-04-27T05:32:41.767Z,7.20
2023-04-27T05:35:11.011Z,7.30
2023-04-27T05:37:39.570Z,7.20
2023-04-27T05:40:10.305Z,7.30
2023-04-27T05:42:40.158Z,7.40
2023-04-27T05:45:10.813Z,7.40
2023-04-27T05:47:39.493Z,7.40
2023-04-27T05:50:08.958Z,7.50
2023-04-27T05:52:38.298Z,7.60
2023-04-27T05:55:08.716Z,7.70
2023-04-27T05:57:37.201Z,7.80
2023-04-27T06:00:11.146Z,7.90
2023-04-27T06:02:39.829Z,8.10
2023-04-27T06:08:15.618Z,8.40
2023-04-27T06:10:44.070Z,8.50
2023-04-27T06:13:12.514Z,8.50
2023-04-27T06:15:42.457Z,8.40
2023-04-27T06:18:11.716Z,8.40
2023-04-27T06:20:43.361Z,8.40
2023-04-27T06:23:11.850Z,8.50
2023-04-27T06:25:40.703Z,8.80
2023-04-27T06:28:09.089Z,8.90
2023-04-27T06:30:39.394Z,9.20
2023-04-27T06:33:10.371Z,9.50
2023-04-27T06:35:38.896Z,9.70
2023-04-27T06:38:32.534Z,9.90
2023-04-27T06:41:01.082Z,10.10
2023-04-27T06:43:30.845Z,10.30
2023-04-27T06:45:59.324Z,10.40
2023-04-27T06:48:29.246Z,10.60
2023-04-27T06:50:57.797Z,10.70
2023-04-27T06:53:26.396Z,10.80
2023-04-27T06:55:55.596Z,10.80
2023-04-27T06:58:24.045Z,11.00
2023-04-27T07:00:52.777Z,11.10
2023-04-27T07:03:22.597Z,11.20
2023-04-27T07:05:53.113Z,11.30
2023-04-27T07:08:21.587Z,11.40
2023-04-27T07:10:50.065Z,11.50
2023-04-27T07:13:18.507Z,11.50
2023-04-27T07:15:47.084Z,11.60
2023-04-27T07:18:15.671Z,11.70
2023-04-27T07:20:44.076Z,11.90
2023-04-27T07:23:13.976Z,12.00
2023-04-27T07:25:43.577Z,12.00
2023-04-27T07:28:12.131Z,12.20
2023-04-27T07:30:41.757Z,12.30
2023-04-27T07:33:11.035Z,12.40
2023-04-27T07:35:43.130Z,12.50
2023-04-27T07:38:13.001Z,12.60
2023-04-27T07:40:43.757Z,12.60
2023-04-27T07:43:13.185Z,12.60
2023-04-27T07:45:42.537Z,12.60
2023-04-27T07:48:11.124Z,12.70
2023-04-27T07:50:39.641Z,12.80
2023-04-27T07:53:08.126Z,13.00
2023-04-27T07:55:37.875Z,13.20
2023-04-27T07:58:06.831Z,13.30
2023-04-27T08:03:25.538Z,13.20
2023-04-27T08:05:54.300Z,13.10
2023-04-27T08:08:26.314Z,13.00
2023-04-27T08:11:24.910Z,13.10
2023-04-27T08:13:53.432Z,13.20
2023-04-27T08:16:22.039Z,13.30
2023-04-27T08:18:51.382Z,13.50
2023-04-27T08:21:19.821Z,13.40
2023-04-27T08:23:48.379Z,13.10
2023-04-27T08:26:17.463Z,13.00
2023-04-27T08:28:47.498Z,13.00
2023-04-27T08:31:15.897Z,13.10
2023-04-27T08:33:44.439Z,13.20
2023-04-27T08:36:12.894Z,13.20
2023-04-27T08:38:41.391Z,13.20
2023-04-27T08:41:20.870Z,13.20
2023-04-27T08:43:53.478Z,13.30
2023-04-27T08:46:23.191Z,13.60
2023-04-27T08:48:53.779Z,13.70
2023-04-27T08:51:24.277Z,13.80
2023-04-27T08:53:54.673Z,13.80
2023-04-27T08:56:25.160Z,13.80
2023-04-27T08:58:56.249Z,13.70
2023-04-27T09:01:27.644Z,13.60
2023-04-27T09:04:01.632Z,13.60
2023-04-27T09:06:35.597Z,13.80
2023-04-27T09:09:06.956Z,14.00
2023-04-27T09:11:38.305Z,13.90
2023-04-27T09:14:20.995Z,13.90
2023-04-27T09:16:57.460Z,13.70
2023-04-27T09:19:26.698Z,13.70
2023-04-27T09:22:06.481Z,13.90
2023-04-27T09:24:35.331Z,14.00
2023-04-27T09:27:05.161Z,14.20
2023-04-27T09:29:37.550Z,14.20
2023-04-27T09:32:17.642Z,14.20
2023-04-27T09:34:46.595Z,14.20
2023-04-27T09:37:16.597Z,14.10
2023-04-27T09:39:46.625Z,14.20
2023-04-27T09:42:16.215Z,14.30
2023-04-27T09:44:46.639Z,14.40
2023-04-27T09:47:16.118Z,14.50
2023-04-27T09:49:44.661Z,14.60
2023-04-27T09:52:13.197Z,14.80
2023-04-27T09:54:42.498Z,14.80
2023-04-27T09:57:25.361Z,14.70
2023-04-27T10:00:16.339Z,14.80
2023-04-27T10:03:07.640Z,15.00
2023-04-27T10:06:01.099Z,15.30
2023-04-27T10:08:31.110Z,15.40
2023-04-27T10:10:59.611Z,15.60
2023-04-27T10:13:28.355Z,15.70
2023-04-27T10:15:58.195Z,15.70
2023-04-27T10:18:32.016Z,15.70
2023-04-27T10:21:21.651Z,15.90
2023-04-27T10:23:52.144Z,15.90
2023-04-27T10:26:25.043Z,15.80
2023-04-27T10:29:07.182Z,15.80
2023-04-27T10:31:44.675Z,15.80
2023-04-27T10:34:21.366Z,15.50
2023-04-27T10:36:50.008Z,15.40
2023-04-27T10:39:19.987Z,15.40
2023-04-27T10:41:54.312Z,15.30
2023-04-27T10:44:30.807Z,15.30
2023-04-27T10:47:02.860Z,15.20
2023-04-27T10:49:32.188Z,15.30
2023-04-27T10:52:04.822Z,15.40
2023-04-27T10:54:57.865Z,15.60
2023-04-27T10:57:26.782Z,15.50
2023-04-27T10:59:56.055Z,15.70
2023-04-27T11:02:30.461Z,15.70
2023-04-27T11:04:59.017Z,15.70
2023-04-27T11:07:29.341Z,15.50
2023-04-27T11:09:57.840Z,15.20
2023-04-27T11:12:26.380Z,15.10
2023-04-27T11:14:59.615Z,14.80
2023-04-27T11:17:33.520Z,14.50
2023-04-27T11:20:02.480Z,14.30
2023-04-27T11:22:31.356Z,14.20
2023-04-27T11:24:59.954Z,14.20
2023-04-27T11:27:39.212Z,14.20
2023-04-27T11:30:21.342Z,14.30
2023-04-27T11:32:53.725Z,14.20
2023-04-27T11:35:33.841Z,14.00
2023-04-27T11:38:02.439Z,13.90
2023-04-27T11:40:32.298Z,13.80
2023-04-27T11:43:04.138Z,13.90
2023-04-27T11:45:37.662Z,14.10
2023-04-27T11:48:08.697Z,14.30
2023-04-27T11:50:37.203Z,14.60
2023-04-27T11:53:05.838Z,14.70
2023-04-27T11:55:41.119Z,14.60
2023-04-27T11:58:15.859Z,14.50
2023-04-27T12:00:44.602Z,14.20
2023-04-27T12:03:14.801Z,14.20
2023-04-27T12:05:50.315Z,14.20
2023-04-27T12:08:19.141Z,14.50
2023-04-27T12:10:48.185Z,14.70
2023-04-27T12:13:16.726Z,15.10
2023-04-27T12:15:45.189Z,15.20
2023-04-27T12:18:15.124Z,15.30
2023-04-27T12:20:44.161Z,15.40
2023-04-27T12:23:12.765Z,15.40
2023-04-27T12:25:44.108Z,15.40
2023-04-27T12:28:19.013Z,15.10
2023-04-27T12:30:47.502Z,15.00
2023-04-27T12:33:17.578Z,14.80
2023-04-27T12:35:46.070Z,14.70
2023-04-27T12:38:14.592Z,14.70
2023-04-27T12:40:43.027Z,14.80
2023-04-27T12:46:20.406Z,15.30
2023-04-27T12:48:50.341Z,15.50
2023-04-27T12:51:18.881Z,15.60
2023-04-27T12:53:47.395Z,15.70
2023-04-27T12:56:16.155Z,15.90
2023-04-27T12:58:44.552Z,16.00
2023-04-27T13:01:15.493Z,16.10
2023-04-27T13:03:44.559Z,16.00
2023-04-27T13:06:14.841Z,15.90
2023-04-27T13:08:43.424Z,15.80
2023-04-27T13:11:11.928Z,15.80
2023-04-27T13:13:41.212Z,15.70
2023-04-27T13:16:10.263Z,15.70
2023-04-27T13:18:40.191Z,15.70
2023-04-27T13:21:09.920Z,15.90
2023-04-27T13:23:39.820Z,15.80
2023-04-27T13:26:08.371Z,15.80
2023-04-27T13:28:36.807Z,15.80
2023-04-27T13:31:05.753Z,15.60
2023-04-27T13:33:41.527Z,15.40
2023-04-27T13:36:11.051Z,15.30
2023-04-27T13:38:41.578Z,15.50
2023-04-27T13:41:10.440Z,15.80
2023-04-27T13:43:38.925Z,16.00
2023-04-27T13:46:32.030Z,16.00
2023-04-27T13:49:00.525Z,15.60
2023-04-27T13:51:29.822Z,15.40
2023-04-27T13:53:59.702Z,15.30
2023-04-27T13:56:28.190Z,15.30
2023-04-27T13:58:56.756Z,15.30
2023-04-27T14:01:26.507Z,15.40
2023-04-27T14:03:55.172Z,15.30
2023-04-27T14:06:23.777Z,15.40
2023-04-27T14:08:54.328Z,15.50
2023-04-27T14:11:26.292Z,15.50
2023-04-27T14:13:54.750Z,15.60
2023-04-27T14:16:24.541Z,15.60
2023-04-27T14:18:53.380Z,15.60
2023-04-27T14:21:21.876Z,15.50
2023-04-27T14:23:50.392Z,15.50
2023-04-27T14:26:18.845Z,15.40
2023-04-27T14:28:48.676Z,15.30
2023-04-27T14:31:17.246Z,15.00
2023-04-27T14:33:45.664Z,14.80
2023-04-27T14:36:39.174Z,14.50
2023-04-27T14:39:09.448Z,14.30
2023-04-27T14:41:38.303Z,14.30
2023-04-27T14:44:09.890Z,14.30
2023-04-27T14:46:38.761Z,14.30
2023-04-27T14:49:07.225Z,14.40
2023-04-27T14:51:35.841Z,14.30
2023-04-27T14:54:05.133Z,14.30
2023-04-27T14:56:34.155Z,14.30
2023-04-27T14:59:03.037Z,14.30
2023-04-27T15:01:32.973Z,14.40
2023-04-27T15:04:02.118Z,14.30
2023-04-27T15:06:31.599Z,14.20
2023-04-27T15:09:00.106Z,14.10
2023-04-27T15:11:28.584Z,13.90
2023-04-27T15:13:57.048Z,13.80
2023-04-27T15:16:52.517Z,13.80
2023-04-27T15:19:21.081Z,13.70
2023-04-27T15:21:50.021Z,13.50
2023-04-27T15:24:18.474Z,13.40
2023-04-27T15:26:48.561Z,13.30
2023-04-27T15:29:17.048Z,13.00
2023-04-27T15:31:47.627Z,12.90
2023-04-27T15:34:17.493Z,13.00
2023-04-27T15:36:46.503Z,13.00
2023-04-27T15:39:15.427Z,13.10
2023-04-27T15:41:44.716Z,13.10
2023-04-27T15:44:13.239Z,13.10
2023-04-27T15:46:44.116Z,13.20
2023-04-27T15:49:13.243Z,13.30
2023-04-27T15:51:43.471Z,13.30
2023-04-27T15:54:11.990Z,13.30
2023-04-27T15:56:40.744Z,13.20
2023-04-27T15:59:09.164Z,13.20
2023-04-27T16:01:37.707Z,13.10
2023-04-27T16:04:06.704Z,13.10
2023-04-27T16:06:37.512Z,13.00
2023-04-27T16:09:11.451Z,12.90
2023-04-27T16:11:40.258Z,12.80
2023-04-27T16:14:08.736Z,12.70
2023-04-27T16:16:38.525Z,12.70
2023-04-27T16:19:08.783Z,12.60
2023-04-27T16:21:47.559Z,12.50
2023-04-27T16:24:19.243Z,12.30
2023-04-27T16:26:47.838Z,12.20
2023-04-27T16:29:16.680Z,12.10
2023-04-27T16:31:46.578Z,12.10
2023-04-27T16:34:15.039Z,12.00
2023-04-27T16:36:43.523Z,11.90
2023-04-27T16:39:12.058Z,11.90
2023-04-27T16:41:42.303Z,11.80
2023-04-27T16:44:10.889Z,11.60
2023-04-27T16:46:39.640Z,11.50
2023-04-27T16:49:08.387Z,11.40
2023-04-27T16:51:36.892Z,11.30
2023-04-27T16:54:05.493Z,11.20
2023-04-27T16:56:36.767Z,11.20
2023-04-27T16:59:06.716Z,11.20
2023-04-27T17:01:35.233Z,11.10
2023-04-27T17:04:03.989Z,11.00
2023-04-27T17:06:33.186Z,10.90
2023-04-27T17:09:02.050Z,10.80
2023-04-27T17:11:30.573Z,10.80
2023-04-27T17:13:59.050Z,10.80
2023-04-27T17:16:28.966Z,10.70
2023-04-27T17:18:57.561Z,10.60
2023-04-27T17:21:27.529Z,10.60
2023-04-27T17:23:56.228Z,10.50
2023-04-27T17:26:24.725Z,10.50
2023-04-27T17:28:55.305Z,10.40
2023-04-27T17:31:23.799Z,10.30
2023-04-27T17:33:53.699Z,10.30
2023-04-27T17:36:22.211Z,10.20
2023-04-27T17:38:50.688Z,10.10
2023-04-27T17:41:19.285Z,10.10
2023-04-27T17:43:48.911Z,10.00
2023-04-27T17:46:17.360Z,10.00
2023-04-27T17:48:45.813Z,9.90
2023-04-27T17:51:15.798Z,9.90
2023-04-27T17:53:46.043Z,9.90
2023-04-27T17:56:14.569Z,9.90
2023-04-27T17:58:49.763Z,9.80
2023-04-27T18:01:18.549Z,9.70
2023-04-27T18:03:48.943Z,9.70
2023-04-27T18:06:43.563Z,9.60
2023-04-27T18:09:12.230Z,9.60
2023-04-27T18:11:41.357Z,9.60
2023-04-27T18:14:09.792Z,9.50
2023-04-27T18:16:38.398Z,9.50
2023-04-27T18:19:06.987Z,9.50
2023-04-27T18:21:35.490Z,9.50
2023-04-27T18:24:06.127Z,9.50
2023-04-27T18:26:36.628Z,9.40
2023-04-27T18:29:05.352Z,9.40
2023-04-27T18:31:35.061Z,9.40
2023-04-27T18:34:03.562Z,9.30
2023-04-27T18:36:32.604Z,9.30
2023-04-27T18:39:01.174Z,9.30
2023-04-27T18:41:31.276Z,9.30
2023-04-27T18:44:05.885Z,9.30
2023-04-27T18:47:00.137Z,9.30
2023-04-27T18:49:28.624Z,9.30
2023-04-27T18:51:57.111Z,9.20
2023-04-27T18:54:25.716Z,9.20
2023-04-27T18:57:20.406Z,9.20
2023-04-27T18:59:48.837Z,9.20
2023-04-27T19:02:17.347Z,9.20
2023-04-27T19:04:52.799Z,9.10
2023-04-27T19:07:26.171Z,9.20
2023-04-27T19:09:56.025Z,9.10
2023-04-27T19:12:26.095Z,9.00
2023-04-27T19:14:54.684Z,9.00
2023-04-27T19:17:23.256Z,9.00
2023-04-27T19:19:51.791Z,9.00
2023-04-27T19:22:20.254Z,8.90
2023-04-27T19:24:49.286Z,8.90
2023-04-27T19:27:17.831Z,8.90
2023-04-27T19:29:55.981Z,8.80
2023-04-27T19:32:27.320Z,8.80
2023-04-27T19:34:56.437Z,8.80
2023-04-27T19:37:26.141Z,8.80
2023-04-27T19:39:54.734Z,8.80
2023-04-27T19:42:24.851Z,8.70
2023-04-27T19:44:55.839Z,8.70
2023-04-27T19:47:24.587Z,8.70
2023-04-27T19:49:53.207Z,8.70
2023-04-27T19:52:21.729Z,8.60
2023-04-27T19:54:53.332Z,8.60
2023-04-27T19:57:22.340Z,8.50
2023-04-27T19:59:50.876Z,8.50
2023-04-27T20:02:20.906Z,8.40
2023-04-27T20:04:49.757Z,8.40
2023-04-27T20:07:18.521Z,8.40
2023-04-27T20:09:46.943Z,8.30
2023-04-27T20:12:29.268Z,8.30
2023-04-27T20:15:06.520Z,8.30
2023-04-27T20:18:01.560Z,8.30
2023-04-27T20:20:30.077Z,8.30
2023-04-27T20:22:58.618Z,8.20
2023-04-27T20:25:27.380Z,8.20
2023-04-27T20:27:55.851Z,8.20
2023-04-27T20:30:24.312Z,8.20
2023-04-27T20:33:45.184Z,8.20
2023-04-27T20:36:17.815Z,8.10
2023-04-27T20:38:47.409Z,8.10
2023-04-27T20:41:16.026Z,8.10
2023-04-27T20:43:45.605Z,8.10
2023-04-27T20:46:14.694Z,8.10
2023-04-27T20:48:43.166Z,8.10
2023-04-27T20:51:20.603Z,8.10
2023-04-27T20:53:49.041Z,8.10
2023-04-27T20:56:17.684Z,8.10
2023-04-27T20:58:46.280Z,8.10
2023-04-27T21:01:14.895Z,8.00
2023-04-27T21:03:43.636Z,8.00
2023-04-27T21:06:12.187Z,8.00
2023-04-27T21:08:42.826Z,7.90
2023-04-27T21:11:11.858Z,8.00
2023-04-27T21:13:40.317Z,8.10
2023-04-27T21:16:59.751Z,8.10
2023-04-27T21:19:28.263Z,8.10
2023-04-27T21:21:56.679Z,8.00
2023-04-27T21:24:26.806Z,7.90
2023-04-27T21:27:00.303Z,7.80
2023-04-27T21:29:29.018Z,7.70
2023-04-27T21:31:57.500Z,7.70
2023-04-27T21:34:25.962Z,7.60
2023-04-27T21:36:54.447Z,7.50
2023-04-27T21:39:22.977Z,7.40
2023-04-27T21:41:56.991Z,7.20
2023-04-27T21:44:25.678Z,7.20
2023-04-27T21:46:54.091Z,7.10
2023-04-27T21:49:22.571Z,7.00
2023-04-27T21:51:50.989Z,7.00
2023-04-27T21:54:19.674Z,7.10
2023-04-27T21:56:48.132Z,7.00
2023-04-27T21:59:18.009Z,7.10
2023-04-27T22:01:46.737Z,7.00
2023-04-27T22:04:16.987Z,7.00
2023-04-27T22:06:45.806Z,7.00
2023-04-27T22:09:14.273Z,6.90
2023-04-27T22:11:42.808Z,6.90
2023-04-27T22:14:11.207Z,6.80
2023-04-27T22:16:41.265Z,6.80
2023-04-27T22:19:35.112Z,6.70
2023-04-27T22:22:03.980Z,6.70
2023-04-27T22:24:32.421Z,6.70
2023-04-27T22:27:00.955Z,6.60
2023-04-27T22:29:29.393Z,6.60
2023-04-27T22:31:59.420Z,6.60
2023-04-27T22:34:53.504Z,6.60
2023-04-27T22:37:23.006Z,6.50
2023-04-27T22:39:51.751Z,6.50
2023-04-27T22:42:20.213Z,6.40
2023-04-27T22:44:48.727Z,6.30
2023-04-27T22:47:18.537Z,6.30
2023-04-27T22:49:46.995Z,6.20
2023-04-27T22:52:16.641Z,6.20
2023-04-27T22:54:45.106Z,6.20
2023-04-27T22:57:13.632Z,6.10
2023-04-27T22:59:42.091Z,6.00
2023-04-27T23:02:11.164Z,6.00
2023-04-27T23:04:41.453Z,6.00
2023-04-27T23:07:10.281Z,6.10
2023-04-27T23:09:38.813Z,6.00
2023-04-27T23:12:07.873Z,5.90
2023-04-27T23:14:36.292Z,5.80
2023-04-27T23:17:05.062Z,5.70
2023-04-27T23:19:33.638Z,5.70
2023-04-27T23:22:03.846Z,5.60
2023-04-27T23:24:32.498Z,5.60
2023-04-27T23:27:01.292Z,5.50
2023-04-27T23:29:29.709Z,5.40
2023-04-27T23:32:03.833Z,5.30
2023-04-27T23:34:32.998Z,5.20
2023-04-27T23:37:03.024Z,5.30
2023-04-27T23:39:31.648Z,5.30
2023-04-27T23:42:25.767Z,5.40
2023-04-27T23:44:54.434Z,5.50
2023-04-27T23:47:23.002Z,5.70
2023-04-27T23:49:51.432Z,5.80
2023-04-27T23:52:21.256Z,5.80
2023-04-27T23:54:49.718Z,5.90
2023-04-27T23:57:18.552Z,6.00
2023-04-27T23:59:47.355Z,6.00
